<?xml version="1.0" encoding="UTF-8" standalone="no" ?>
<gpx xmlns="http://www.topografix.com/GPX/1/1" xmlns:xsi="http://www.w3.org/2001/XMLSchema-instance" xsi:schemaLocation="http://www.topografix.com/GPX/1/1 http://www.topografix.com/GPX/1/1/gpx.xsd" version="1.1" creator="VisuGPX - https://www.visugpx.com">
  <metadata>
    <name>Grand Galbert par Poursollet en circuit</name>
    <desc><![CDATA[Lac Poursollet (parking), col du Treuil, à vue sous Cime Chalvine jusque vers pt 2285m, puis sente vers le sommet.
Descente hors sentier à vue Sud Ouest jusque 2300m, puis bergerie du Grand Galbert, lac Canard, lac Fourchu (sentier), puis retour par GR50.]]></desc>
  </metadata>
  <trk>
    <name><![CDATA[Grand Galbert par Poursollet en circuit_1]]></name>
    <trkseg>
      <trkpt lat="45.05296" lon="5.89801">
        <ele>1661</ele>
        <time>2018-07-29T15:17:36Z</time>
      </trkpt>
      <trkpt lat="45.05295" lon="5.89814">
        <ele>1661</ele>
        <time>2018-07-29T15:01:33Z</time>
      </trkpt>
      <trkpt lat="45.05305" lon="5.89844">
        <ele>1660</ele>
        <time>2018-07-29T12:35:23Z</time>
      </trkpt>
      <trkpt lat="45.05315" lon="5.89895">
        <ele>1658.7</ele>
        <time>2018-07-29T12:38:26Z</time>
      </trkpt>
      <trkpt lat="45.05319" lon="5.89951">
        <ele>1655</ele>
        <time>2018-07-29T12:41:20Z</time>
      </trkpt>
      <trkpt lat="45.05327" lon="5.89996">
        <ele>1650</ele>
        <time>2018-07-29T12:42:27Z</time>
      </trkpt>
      <trkpt lat="45.05296" lon="5.90081">
        <ele>1648.6</ele>
        <time>2018-07-29T12:45:30Z</time>
      </trkpt>
      <trkpt lat="45.0531" lon="5.90133">
        <ele>1644.7</ele>
        <time>2018-07-29T12:47:18Z</time>
      </trkpt>
      <trkpt lat="45.05306" lon="5.90194">
        <ele>1644.4</ele>
        <time>2018-07-29T12:49:36Z</time>
      </trkpt>
      <trkpt lat="45.05329" lon="5.90298">
        <ele>1649.3</ele>
        <time>2018-07-29T12:51:16Z</time>
      </trkpt>
      <trkpt lat="45.05345" lon="5.90409">
        <ele>1649.5</ele>
        <time>2018-07-29T12:52:36Z</time>
      </trkpt>
      <trkpt lat="45.05354" lon="5.90454">
        <ele>1652.3</ele>
        <time>2018-07-29T12:56:02Z</time>
      </trkpt>
      <trkpt lat="45.05375" lon="5.9053">
        <ele>1658.2</ele>
        <time>2018-07-29T12:57:41Z</time>
      </trkpt>
      <trkpt lat="45.05379" lon="5.90627">
        <ele>1666.1</ele>
        <time>2018-07-29T12:59:14Z</time>
      </trkpt>
      <trkpt lat="45.05401" lon="5.90658">
        <ele>1666.5</ele>
        <time>2018-07-29T13:07:05Z</time>
      </trkpt>
      <trkpt lat="45.05425" lon="5.90731">
        <ele>1672.2</ele>
        <time>2018-07-29T13:08:26Z</time>
      </trkpt>
      <trkpt lat="45.0545" lon="5.90793">
        <ele>1679.7</ele>
        <time>2018-07-29T13:09:54Z</time>
      </trkpt>
      <trkpt lat="45.05488" lon="5.90842">
        <ele>1686.4</ele>
        <time>2018-07-29T13:11:06Z</time>
      </trkpt>
      <trkpt lat="45.05534" lon="5.90824">
        <ele>1684.8</ele>
        <time>2018-07-29T13:28:30Z</time>
      </trkpt>
      <trkpt lat="45.05599" lon="5.90783">
        <ele>1694.6</ele>
        <time>2018-07-29T13:32:57Z</time>
      </trkpt>
      <trkpt lat="45.05643" lon="5.90715">
        <ele>1692.6</ele>
        <time>2018-07-29T13:33:58Z</time>
      </trkpt>
      <trkpt lat="45.0565" lon="5.90697">
        <ele>1692.7</ele>
        <time>2018-07-29T13:37:26Z</time>
      </trkpt>
      <trkpt lat="45.0566" lon="5.90685">
        <ele>1694.3</ele>
        <time>2018-07-29T13:39:50Z</time>
      </trkpt>
      <trkpt lat="45.0567" lon="5.90693">
        <ele>1703</ele>
        <time>2018-07-29T13:41:13Z</time>
      </trkpt>
      <trkpt lat="45.05678" lon="5.90709">
        <ele>1704.1</ele>
        <time>2018-07-29T13:42:26Z</time>
      </trkpt>
      <trkpt lat="45.05713" lon="5.9074">
        <ele>1706.1</ele>
        <time>2018-07-29T13:43:40Z</time>
      </trkpt>
      <trkpt lat="45.05749" lon="5.90803">
        <ele>1708.8</ele>
        <time>2018-07-29T13:46:11Z</time>
      </trkpt>
      <trkpt lat="45.05778" lon="5.90868">
        <ele>1715.5</ele>
        <time>2018-07-29T13:47:17Z</time>
      </trkpt>
      <trkpt lat="45.05813" lon="5.90904">
        <ele>1717.6</ele>
        <time>2018-07-29T13:48:30Z</time>
      </trkpt>
      <trkpt lat="45.05834" lon="5.9094">
        <ele>1722.9</ele>
        <time>2018-07-29T13:49:43Z</time>
      </trkpt>
      <trkpt lat="45.05844" lon="5.90965">
        <ele>1723.7</ele>
        <time>2018-07-29T13:51:50Z</time>
      </trkpt>
      <trkpt lat="45.05896" lon="5.91005">
        <ele>1726.9</ele>
        <time>2018-07-29T14:02:51Z</time>
      </trkpt>
      <trkpt lat="45.05887" lon="5.91052">
        <ele>1725.9</ele>
        <time>2018-07-29T14:03:41Z</time>
      </trkpt>
      <trkpt lat="45.05891" lon="5.91081">
        <ele>1726.8</ele>
        <time>2018-07-29T14:04:32Z</time>
      </trkpt>
      <trkpt lat="45.05925" lon="5.91132">
        <ele>1737.8</ele>
        <time>2018-07-29T14:05:34Z</time>
      </trkpt>
      <trkpt lat="45.05959" lon="5.91208">
        <ele>1741.9</ele>
        <time>2018-07-29T14:08:10Z</time>
      </trkpt>
      <trkpt lat="45.05959" lon="5.91279">
        <ele>1744.5</ele>
        <time>2018-07-29T14:10:14Z</time>
      </trkpt>
      <trkpt lat="45.05949" lon="5.9134">
        <ele>1746.3</ele>
        <time>2018-07-29T14:11:42Z</time>
      </trkpt>
      <trkpt lat="45.0595" lon="5.91386">
        <ele>1747.5</ele>
        <time>2018-07-29T14:13:05Z</time>
      </trkpt>
      <trkpt lat="45.05957" lon="5.91478">
        <ele>1752.5</ele>
        <time>2018-07-29T14:14:28Z</time>
      </trkpt>
      <trkpt lat="45.05974" lon="5.91577">
        <ele>1761.1</ele>
        <time>2018-07-29T14:17:28Z</time>
      </trkpt>
      <trkpt lat="45.05987" lon="5.91775">
        <ele>1780.1</ele>
        <time>2018-07-29T14:18:25Z</time>
      </trkpt>
      <trkpt lat="45.05981" lon="5.91869">
        <ele>1794.3</ele>
        <time>2018-07-29T14:21:15Z</time>
      </trkpt>
      <trkpt lat="45.05996" lon="5.91891">
        <ele>1799.4</ele>
        <time>2018-07-29T14:22:21Z</time>
      </trkpt>
      <trkpt lat="45.06021" lon="5.91883">
        <ele>1818.1</ele>
        <time>2018-07-29T14:23:48Z</time>
      </trkpt>
      <trkpt lat="45.06053" lon="5.91782">
        <ele>1811.1</ele>
        <time>2018-07-29T14:26:07Z</time>
      </trkpt>
      <trkpt lat="45.06094" lon="5.91751">
        <ele>1827.9</ele>
        <time>2018-07-29T14:28:08Z</time>
      </trkpt>
      <trkpt lat="45.06093" lon="5.91725">
        <ele>1827.1</ele>
        <time>2018-07-29T14:28:59Z</time>
      </trkpt>
      <trkpt lat="45.06103" lon="5.91682">
        <ele>1825.8</ele>
        <time>2018-07-29T14:30:16Z</time>
      </trkpt>
      <trkpt lat="45.06121" lon="5.91568">
        <ele>1819.9</ele>
        <time>2018-07-29T14:31:12Z</time>
      </trkpt>
      <trkpt lat="45.0614" lon="5.91529">
        <ele>1821.2</ele>
        <time>2018-07-29T09:00:39Z</time>
      </trkpt>
      <trkpt lat="45.06156" lon="5.91492">
        <ele>1821.3</ele>
        <time>2018-07-29T08:59:20Z</time>
      </trkpt>
      <trkpt lat="45.06166" lon="5.91446">
        <ele>1816.4</ele>
        <time>2018-07-29T08:58:20Z</time>
      </trkpt>
      <trkpt lat="45.06178" lon="5.91433">
        <ele>1826</ele>
        <time>2018-07-29T08:57:38Z</time>
      </trkpt>
      <trkpt lat="45.06195" lon="5.91446">
        <ele>1829</ele>
        <time>2018-07-29T08:56:40Z</time>
      </trkpt>
      <trkpt lat="45.06205" lon="5.91461">
        <ele>1830.7</ele>
        <time>2018-07-29T08:55:45Z</time>
      </trkpt>
      <trkpt lat="45.06223" lon="5.91589">
        <ele>1846.9</ele>
        <time>2018-07-29T08:53:43Z</time>
      </trkpt>
      <trkpt lat="45.06222" lon="5.91643">
        <ele>1847.4</ele>
        <time>2018-07-29T08:53:25Z</time>
      </trkpt>
      <trkpt lat="45.06214" lon="5.91673">
        <ele>1849.5</ele>
        <time>2018-07-29T08:52:23Z</time>
      </trkpt>
      <trkpt lat="45.06223" lon="5.91735">
        <ele>1851.5</ele>
        <time>2018-07-29T08:51:35Z</time>
      </trkpt>
      <trkpt lat="45.06275" lon="5.91801">
        <ele>1861.8</ele>
        <time>2018-07-29T08:49:53Z</time>
      </trkpt>
      <trkpt lat="45.06333" lon="5.91867">
        <ele>1864.2</ele>
        <time>2018-07-29T08:47:21Z</time>
      </trkpt>
      <trkpt lat="45.06345" lon="5.91898">
        <ele>1867.1</ele>
        <time>2018-07-29T08:45:48Z</time>
      </trkpt>
      <trkpt lat="45.06415" lon="5.91959">
        <ele>1870.9</ele>
        <time>2018-07-29T08:44:41Z</time>
      </trkpt>
      <trkpt lat="45.06444" lon="5.91979">
        <ele>1868</ele>
        <time>2018-07-29T08:43:34Z</time>
      </trkpt>
      <trkpt lat="45.06521" lon="5.92044">
        <ele>1868.5</ele>
        <time>2018-07-29T08:37:25Z</time>
      </trkpt>
      <trkpt lat="45.06551" lon="5.92043">
        <ele>1866.9</ele>
        <time>2018-07-29T08:32:53Z</time>
      </trkpt>
      <trkpt lat="45.06572" lon="5.92085">
        <ele>1875.9</ele>
        <time>2018-07-29T08:27:29Z</time>
      </trkpt>
      <trkpt lat="45.06612" lon="5.92079">
        <ele>1865.5</ele>
        <time>2018-07-29T08:21:10Z</time>
      </trkpt>
      <trkpt lat="45.06637" lon="5.92083">
        <ele>1865.4</ele>
        <time>2018-07-29T08:18:58Z</time>
      </trkpt>
      <trkpt lat="45.06683" lon="5.9206">
        <ele>1862.8</ele>
        <time>2018-07-29T08:17:50Z</time>
      </trkpt>
      <trkpt lat="45.06701" lon="5.92073">
        <ele>1862.6</ele>
        <time>2018-07-29T08:16:40Z</time>
      </trkpt>
      <trkpt lat="45.06748" lon="5.92148">
        <ele>1877.5</ele>
        <time>2018-07-29T08:14:35Z</time>
      </trkpt>
      <trkpt lat="45.06748" lon="5.92188">
        <ele>1885.7</ele>
        <time>2018-07-29T08:12:00Z</time>
      </trkpt>
      <trkpt lat="45.06768" lon="5.92229">
        <ele>1893.8</ele>
        <time>2018-07-29T08:07:30Z</time>
      </trkpt>
      <trkpt lat="45.06789" lon="5.92317">
        <ele>1914.6</ele>
        <time>2018-07-29T08:05:06Z</time>
      </trkpt>
      <trkpt lat="45.06814" lon="5.92372">
        <ele>1932.8</ele>
        <time>2018-07-29T08:03:19Z</time>
      </trkpt>
      <trkpt lat="45.06832" lon="5.92378">
        <ele>1935.1</ele>
        <time>2018-07-29T08:02:06Z</time>
      </trkpt>
      <trkpt lat="45.06845" lon="5.92401">
        <ele>1945.9</ele>
        <time>2018-07-29T07:58:11Z</time>
      </trkpt>
      <trkpt lat="45.06885" lon="5.92407">
        <ele>1945.9</ele>
        <time>2018-07-29T07:56:19Z</time>
      </trkpt>
      <trkpt lat="45.0691" lon="5.9242">
        <ele>1954.6</ele>
        <time>2018-07-29T07:53:36Z</time>
      </trkpt>
      <trkpt lat="45.06927" lon="5.92448">
        <ele>1953.6</ele>
        <time>2018-07-29T07:50:10Z</time>
      </trkpt>
      <trkpt lat="45.0693" lon="5.92467">
        <ele>1955.2</ele>
        <time>2018-07-29T07:43:34Z</time>
      </trkpt>
      <trkpt lat="45.06954" lon="5.92492">
        <ele>1956</ele>
        <time>2018-07-29T07:41:45Z</time>
      </trkpt>
      <trkpt lat="45.06975" lon="5.92512">
        <ele>1967</ele>
        <time>2018-07-29T07:40:05Z</time>
      </trkpt>
      <trkpt lat="45.06998" lon="5.92544">
        <ele>1971.1</ele>
        <time>2018-07-29T07:38:10Z</time>
      </trkpt>
      <trkpt lat="45.07034" lon="5.92554">
        <ele>1977.6</ele>
        <time>2018-07-29T07:29:28Z</time>
      </trkpt>
      <trkpt lat="45.0705" lon="5.92576">
        <ele>1981.6</ele>
        <time>2018-07-29T07:28:06Z</time>
      </trkpt>
      <trkpt lat="45.07088" lon="5.92588">
        <ele>2000.8</ele>
        <time>2018-07-29T07:25:39Z</time>
      </trkpt>
      <trkpt lat="45.07147" lon="5.9261">
        <ele>2018.4</ele>
        <time>2018-07-29T07:23:59Z</time>
      </trkpt>
      <trkpt lat="45.07176" lon="5.92621">
        <ele>2030.5</ele>
        <time>2018-07-29T07:21:10Z</time>
      </trkpt>
      <trkpt lat="45.07197" lon="5.92623">
        <ele>2032.1</ele>
        <time>2019-10-06T11:43:56Z</time>
      </trkpt>
      <trkpt lat="45.07281" lon="5.92657">
        <ele>2048.2</ele>
        <time>2019-10-06T11:43:56Z</time>
      </trkpt>
      <trkpt lat="45.07359" lon="5.92675">
        <ele>2080.7</ele>
        <time>2019-10-06T11:50:54Z</time>
      </trkpt>
      <trkpt lat="45.07435" lon="5.92671">
        <ele>2095.7</ele>
        <time>2019-10-06T11:51:00Z</time>
      </trkpt>
      <trkpt lat="45.07507" lon="5.92721">
        <ele>2127.2</ele>
        <time>2019-10-06T11:51:29Z</time>
      </trkpt>
      <trkpt lat="45.07519" lon="5.92751">
        <ele>2131.4</ele>
        <time>2019-10-06T11:51:45Z</time>
      </trkpt>
      <trkpt lat="45.0756" lon="5.92812">
        <ele>2139.1</ele>
        <time>2019-10-06T11:54:41Z</time>
      </trkpt>
      <trkpt lat="45.07579" lon="5.92823">
        <ele>2143.3</ele>
        <time>2019-10-06T11:55:22Z</time>
      </trkpt>
      <trkpt lat="45.07592" lon="5.9284">
        <ele>2150</ele>
        <time>2019-10-06T11:55:57Z</time>
      </trkpt>
      <trkpt lat="45.07711" lon="5.92895">
        <ele>2180.3</ele>
        <time>2019-10-06T11:57:57Z</time>
      </trkpt>
      <trkpt lat="45.07773" lon="5.92912">
        <ele>2201.3</ele>
        <time>2019-10-06T11:58:01Z</time>
      </trkpt>
      <trkpt lat="45.07823" lon="5.92937">
        <ele>2201.7</ele>
        <time>2019-10-06T11:58:25Z</time>
      </trkpt>
      <trkpt lat="45.07862" lon="5.92973">
        <ele>2216</ele>
        <time>2019-10-06T11:59:17Z</time>
      </trkpt>
      <trkpt lat="45.07957" lon="5.93065">
        <ele>2228.7</ele>
        <time>2019-10-06T11:59:25Z</time>
      </trkpt>
      <trkpt lat="45.07995" lon="5.93151">
        <ele>2225.2</ele>
        <time>2019-10-06T11:59:41Z</time>
      </trkpt>
      <trkpt lat="45.08045" lon="5.93301">
        <ele>2232</ele>
        <time>2019-10-06T11:59:57Z</time>
      </trkpt>
      <trkpt lat="45.08053" lon="5.93353">
        <ele>2226.7</ele>
        <time>2019-10-06T12:00:25Z</time>
      </trkpt>
      <trkpt lat="45.08054" lon="5.93396">
        <ele>2224.8</ele>
        <time>2019-10-06T12:00:33Z</time>
      </trkpt>
      <trkpt lat="45.08058" lon="5.93445">
        <ele>2219.1</ele>
        <time>2019-10-06T12:00:53Z</time>
      </trkpt>
      <trkpt lat="45.08078" lon="5.93506">
        <ele>2218.9</ele>
        <time>2019-10-06T12:01:41Z</time>
      </trkpt>
      <trkpt lat="45.08172" lon="5.93631">
        <ele>2228.1</ele>
        <time>2019-10-06T12:02:29Z</time>
      </trkpt>
      <trkpt lat="45.08227" lon="5.93804">
        <ele>2225.1</ele>
        <time>2019-10-06T12:02:37Z</time>
      </trkpt>
      <trkpt lat="45.08247" lon="5.93899">
        <ele>2229.5</ele>
        <time>2019-10-06T12:04:01Z</time>
      </trkpt>
      <trkpt lat="45.08261" lon="5.93989">
        <ele>2232.5</ele>
        <time>2019-10-06T12:05:38Z</time>
      </trkpt>
      <trkpt lat="45.08298" lon="5.94106">
        <ele>2230.6</ele>
        <time>2019-10-06T12:05:50Z</time>
      </trkpt>
      <trkpt lat="45.08313" lon="5.94181">
        <ele>2228.2</ele>
        <time>2019-10-06T12:06:49Z</time>
      </trkpt>
      <trkpt lat="45.08355" lon="5.94299">
        <ele>2225.3</ele>
        <time>2019-10-06T12:10:05Z</time>
      </trkpt>
      <trkpt lat="45.0841" lon="5.94576">
        <ele>2240.5</ele>
        <time>2019-10-06T12:10:45Z</time>
      </trkpt>
      <trkpt lat="45.08478" lon="5.94812">
        <ele>2273.1</ele>
        <time>2019-10-06T12:13:01Z</time>
      </trkpt>
      <trkpt lat="45.08504" lon="5.94901">
        <ele>2295.5</ele>
        <time>2019-10-06T12:13:10Z</time>
      </trkpt>
      <trkpt lat="45.08517" lon="5.94958">
        <ele>2316.1</ele>
        <time>2019-10-06T12:13:25Z</time>
      </trkpt>
      <trkpt lat="45.08529" lon="5.94979">
        <ele>2319.3</ele>
        <time>2019-10-06T12:14:09Z</time>
      </trkpt>
      <trkpt lat="45.08563" lon="5.95013">
        <ele>2340.8</ele>
        <time>2019-10-06T12:14:37Z</time>
      </trkpt>
      <trkpt lat="45.08571" lon="5.95038">
        <ele>2345.3</ele>
        <time>2019-10-06T12:15:02Z</time>
      </trkpt>
      <trkpt lat="45.08609" lon="5.95066">
        <ele>2353.3</ele>
        <time>2019-10-06T12:15:33Z</time>
      </trkpt>
      <trkpt lat="45.08634" lon="5.95097">
        <ele>2379.6</ele>
        <time>2019-10-06T12:15:53Z</time>
      </trkpt>
      <trkpt lat="45.08667" lon="5.95171">
        <ele>2406.4</ele>
        <time>2019-10-06T12:16:37Z</time>
      </trkpt>
      <trkpt lat="45.08717" lon="5.9524">
        <ele>2414</ele>
        <time>2019-10-06T12:16:54Z</time>
      </trkpt>
      <trkpt lat="45.08752" lon="5.95287">
        <ele>2413</ele>
        <time>2019-10-06T12:18:21Z</time>
      </trkpt>
      <trkpt lat="45.08775" lon="5.95382">
        <ele>2434.9</ele>
        <time>2019-10-06T12:18:45Z</time>
      </trkpt>
      <trkpt lat="45.08777" lon="5.95418">
        <ele>2452.9</ele>
        <time>2019-10-06T12:21:33Z</time>
      </trkpt>
      <trkpt lat="45.08805" lon="5.95487">
        <ele>2459.3</ele>
        <time>2019-10-06T12:21:41Z</time>
      </trkpt>
      <trkpt lat="45.08817" lon="5.95558">
        <ele>2483.7</ele>
        <time>2019-10-06T12:26:05Z</time>
      </trkpt>
      <trkpt lat="45.0887" lon="5.95683">
        <ele>2508.4</ele>
        <time>2019-10-06T12:28:05Z</time>
      </trkpt>
      <trkpt lat="45.0889" lon="5.95757">
        <ele>2519.7</ele>
        <time>2019-10-06T12:28:45Z</time>
      </trkpt>
      <trkpt lat="45.08926" lon="5.95805">
        <ele>2522</ele>
        <time>2019-10-06T12:29:01Z</time>
      </trkpt>
      <trkpt lat="45.08973" lon="5.9585">
        <ele>2525</ele>
        <time>2019-10-06T12:29:17Z</time>
      </trkpt>
      <trkpt lat="45.08994" lon="5.95877">
        <ele>2526</ele>
        <time>2019-10-06T12:29:53Z</time>
      </trkpt>
      <trkpt lat="45.0901" lon="5.95902">
        <ele>2535</ele>
        <time>2019-10-06T12:30:06Z</time>
      </trkpt>
      <trkpt lat="45.09021" lon="5.95919">
        <ele>2540</ele>
        <time>2019-10-06T12:30:45Z</time>
      </trkpt>
      <trkpt lat="45.09034" lon="5.95935">
        <ele>2545</ele>
        <time>2019-10-06T12:34:34Z</time>
      </trkpt>
      <trkpt lat="45.09017" lon="5.95937">
        <ele>2550</ele>
        <time>2019-10-06T12:34:42Z</time>
      </trkpt>
      <trkpt lat="45.08995" lon="5.95921">
        <ele>2561</ele>
        <time>2019-10-06T12:34:51Z</time>
      </trkpt>
      <trkpt lat="45.08962" lon="5.95931">
        <ele>2550.9</ele>
        <time>2019-10-06T12:37:26Z</time>
      </trkpt>
      <trkpt lat="45.08943" lon="5.95945">
        <ele>2540.01</ele>
        <time>2019-10-06T12:38:42Z</time>
      </trkpt>
      <trkpt lat="45.08925" lon="5.95933">
        <ele>2530</ele>
        <time>2019-10-06T12:38:58Z</time>
      </trkpt>
      <trkpt lat="45.08899" lon="5.95913">
        <ele>2520</ele>
        <time>2019-10-06T12:39:14Z</time>
      </trkpt>
      <trkpt lat="45.08894" lon="5.95937">
        <ele>2517.62</ele>
        <time>2019-10-06T12:40:10Z</time>
      </trkpt>
      <trkpt lat="45.08871" lon="5.95931">
        <ele>2493.24</ele>
        <time>2019-10-06T12:41:06Z</time>
      </trkpt>
      <trkpt lat="45.08851" lon="5.95925">
        <ele>2486.66</ele>
        <time>2019-10-06T12:41:14Z</time>
      </trkpt>
      <trkpt lat="45.08806" lon="5.95919">
        <ele>2469.91</ele>
        <time>2019-10-06T12:41:22Z</time>
      </trkpt>
      <trkpt lat="45.08775" lon="5.95915">
        <ele>2470.32</ele>
        <time>2019-10-06T12:41:30Z</time>
      </trkpt>
      <trkpt lat="45.08748" lon="5.95894">
        <ele>2480.69</ele>
        <time>2019-10-06T12:41:50Z</time>
      </trkpt>
      <trkpt lat="45.08714" lon="5.95868">
        <ele>2474.8</ele>
        <time>2019-10-06T12:43:06Z</time>
      </trkpt>
      <trkpt lat="45.08692" lon="5.95863">
        <ele>2469.27</ele>
        <time>2019-10-06T12:43:34Z</time>
      </trkpt>
      <trkpt lat="45.08675" lon="5.95837">
        <ele>2462.37</ele>
        <time>2019-10-06T12:43:50Z</time>
      </trkpt>
      <trkpt lat="45.08658" lon="5.95817">
        <ele>2446.5</ele>
        <time>2019-10-06T12:44:06Z</time>
      </trkpt>
      <trkpt lat="45.08658" lon="5.95778">
        <ele>2459.55</ele>
        <time>2019-10-06T12:45:02Z</time>
      </trkpt>
      <trkpt lat="45.08646" lon="5.95752">
        <ele>2460.14</ele>
        <time>2019-10-06T12:45:26Z</time>
      </trkpt>
      <trkpt lat="45.08646" lon="5.95724">
        <ele>2446.54</ele>
        <time>2019-10-06T12:46:26Z</time>
      </trkpt>
      <trkpt lat="45.08627" lon="5.95697">
        <ele>2432.07</ele>
        <time>2019-10-06T12:46:42Z</time>
      </trkpt>
      <trkpt lat="45.08631" lon="5.95666">
        <ele>2419.82</ele>
        <time>2019-10-06T12:47:14Z</time>
      </trkpt>
      <trkpt lat="45.08625" lon="5.95638">
        <ele>2417.78</ele>
        <time>2019-10-06T12:47:54Z</time>
      </trkpt>
      <trkpt lat="45.08628" lon="5.95625">
        <ele>2412.5</ele>
        <time>2019-10-06T12:48:50Z</time>
      </trkpt>
      <trkpt lat="45.08624" lon="5.9559">
        <ele>2417.4</ele>
        <time>2019-10-06T12:48:58Z</time>
      </trkpt>
      <trkpt lat="45.0862" lon="5.95529">
        <ele>2416.16</ele>
        <time>2019-10-06T12:49:14Z</time>
      </trkpt>
      <trkpt lat="45.08628" lon="5.95505">
        <ele>2396.74</ele>
        <time>2019-10-06T12:49:30Z</time>
      </trkpt>
      <trkpt lat="45.08629" lon="5.95475">
        <ele>2398.04</ele>
        <time>2019-10-06T12:50:18Z</time>
      </trkpt>
      <trkpt lat="45.08603" lon="5.95418">
        <ele>2393.49</ele>
        <time>2019-10-06T12:50:26Z</time>
      </trkpt>
      <trkpt lat="45.08577" lon="5.95393">
        <ele>2393.12</ele>
        <time>2019-10-06T12:50:58Z</time>
      </trkpt>
      <trkpt lat="45.0857" lon="5.95365">
        <ele>2378.83</ele>
        <time>2019-10-06T12:57:09Z</time>
      </trkpt>
      <trkpt lat="45.08545" lon="5.95362">
        <ele>2354.35</ele>
        <time>2019-10-06T12:57:25Z</time>
      </trkpt>
      <trkpt lat="45.08528" lon="5.95337">
        <ele>2340.48</ele>
        <time>2019-10-06T12:57:41Z</time>
      </trkpt>
      <trkpt lat="45.08506" lon="5.95328">
        <ele>2338.46</ele>
        <time>2019-10-06T12:58:05Z</time>
      </trkpt>
      <trkpt lat="45.08497" lon="5.95282">
        <ele>2333.35</ele>
        <time>2019-10-06T12:58:21Z</time>
      </trkpt>
      <trkpt lat="45.08488" lon="5.95253">
        <ele>2355.77</ele>
        <time>2019-10-06T12:58:45Z</time>
      </trkpt>
      <trkpt lat="45.08487" lon="5.95213">
        <ele>2356.75</ele>
        <time>2019-10-06T12:58:57Z</time>
      </trkpt>
      <trkpt lat="45.0847" lon="5.952">
        <ele>2336.65</ele>
        <time>2019-10-06T12:59:21Z</time>
      </trkpt>
      <trkpt lat="45.08461" lon="5.95167">
        <ele>2334.23</ele>
        <time>2019-10-06T12:59:49Z</time>
      </trkpt>
      <trkpt lat="45.08421" lon="5.95107">
        <ele>2327.15</ele>
        <time>2019-10-06T13:00:13Z</time>
      </trkpt>
      <trkpt lat="45.08421" lon="5.95067">
        <ele>2321.44</ele>
        <time>2019-10-06T13:00:29Z</time>
      </trkpt>
      <trkpt lat="45.08412" lon="5.9508">
        <ele>2324.67</ele>
        <time>2019-10-06T13:00:50Z</time>
      </trkpt>
      <trkpt lat="45.08396" lon="5.95094">
        <ele>2301.43</ele>
        <time>2019-10-06T13:01:09Z</time>
      </trkpt>
      <trkpt lat="45.08376" lon="5.9508">
        <ele>2300.41</ele>
        <time>2019-10-06T13:01:33Z</time>
      </trkpt>
      <trkpt lat="45.08365" lon="5.95055">
        <ele>2298.03</ele>
        <time>2019-10-06T13:02:09Z</time>
      </trkpt>
      <trkpt lat="45.08346" lon="5.95037">
        <ele>2298.39</ele>
        <time>2019-10-06T13:02:25Z</time>
      </trkpt>
      <trkpt lat="45.08327" lon="5.95056">
        <ele>2299.65</ele>
        <time>2019-10-06T13:02:49Z</time>
      </trkpt>
      <trkpt lat="45.08322" lon="5.9501">
        <ele>2291.85</ele>
        <time>2019-10-06T13:03:13Z</time>
      </trkpt>
      <trkpt lat="45.08308" lon="5.95027">
        <ele>2292</ele>
        <time>2019-10-06T13:03:29Z</time>
      </trkpt>
      <trkpt lat="45.08281" lon="5.9503">
        <ele>2289.15</ele>
        <time>2019-10-06T13:03:49Z</time>
      </trkpt>
      <trkpt lat="45.08263" lon="5.95026">
        <ele>2295.84</ele>
        <time>2019-10-06T13:04:09Z</time>
      </trkpt>
      <trkpt lat="45.08242" lon="5.94997">
        <ele>2294.77</ele>
        <time>2019-10-06T13:04:17Z</time>
      </trkpt>
      <trkpt lat="45.08221" lon="5.95007">
        <ele>2281.68</ele>
        <time>2019-10-06T13:05:29Z</time>
      </trkpt>
      <trkpt lat="45.08202" lon="5.94986">
        <ele>2283.72</ele>
        <time>2019-10-06T13:05:45Z</time>
      </trkpt>
      <trkpt lat="45.08208" lon="5.94946">
        <ele>2277.12</ele>
        <time>2019-10-06T13:05:57Z</time>
      </trkpt>
      <trkpt lat="45.08197" lon="5.94971">
        <ele>2274.41</ele>
        <time>2019-10-06T13:06:21Z</time>
      </trkpt>
      <trkpt lat="45.08172" lon="5.94969">
        <ele>2255.9</ele>
        <time>2019-10-06T13:06:37Z</time>
      </trkpt>
      <trkpt lat="45.08157" lon="5.94946">
        <ele>2268.77</ele>
        <time>2019-10-06T13:06:57Z</time>
      </trkpt>
      <trkpt lat="45.08146" lon="5.94943">
        <ele>2261.16</ele>
        <time>2019-10-06T13:07:17Z</time>
      </trkpt>
      <trkpt lat="45.08124" lon="5.94929">
        <ele>2247.75</ele>
        <time>2019-10-06T13:07:33Z</time>
      </trkpt>
      <trkpt lat="45.08102" lon="5.94918">
        <ele>2244.99</ele>
        <time>2019-10-06T13:07:53Z</time>
      </trkpt>
      <trkpt lat="45.08086" lon="5.94896">
        <ele>2235.37</ele>
        <time>2019-10-06T13:08:13Z</time>
      </trkpt>
      <trkpt lat="45.08073" lon="5.94873">
        <ele>2205.1</ele>
        <time>2019-10-06T13:08:25Z</time>
      </trkpt>
      <trkpt lat="45.08056" lon="5.94876">
        <ele>2205.2</ele>
        <time>2019-10-06T13:08:45Z</time>
      </trkpt>
      <trkpt lat="45.08041" lon="5.94872">
        <ele>2206.27</ele>
        <time>2019-10-06T13:09:09Z</time>
      </trkpt>
      <trkpt lat="45.08009" lon="5.94854">
        <ele>2201.49</ele>
        <time>2019-10-06T13:09:29Z</time>
      </trkpt>
      <trkpt lat="45.07989" lon="5.94854">
        <ele>2184.68</ele>
        <time>2019-10-06T13:09:49Z</time>
      </trkpt>
      <trkpt lat="45.0796" lon="5.94854">
        <ele>2174.98</ele>
        <time>2019-10-06T13:10:09Z</time>
      </trkpt>
      <trkpt lat="45.07928" lon="5.94862">
        <ele>2170.72</ele>
        <time>2019-10-06T13:10:29Z</time>
      </trkpt>
      <trkpt lat="45.07909" lon="5.94862">
        <ele>2170.82</ele>
        <time>2019-10-06T13:10:45Z</time>
      </trkpt>
      <trkpt lat="45.07867" lon="5.94842">
        <ele>2175.28</ele>
        <time>2019-10-06T13:11:01Z</time>
      </trkpt>
      <trkpt lat="45.07848" lon="5.94829">
        <ele>2178.01</ele>
        <time>2019-10-06T13:11:21Z</time>
      </trkpt>
      <trkpt lat="45.07838" lon="5.94808">
        <ele>2170.88</ele>
        <time>2019-10-06T13:11:29Z</time>
      </trkpt>
      <trkpt lat="45.07819" lon="5.94807">
        <ele>2156.26</ele>
        <time>2019-10-06T13:14:37Z</time>
      </trkpt>
      <trkpt lat="45.0778" lon="5.94795">
        <ele>2154.13</ele>
        <time>2019-10-06T13:14:41Z</time>
      </trkpt>
      <trkpt lat="45.07748" lon="5.94798">
        <ele>2157.34</ele>
        <time>2019-10-06T13:14:46Z</time>
      </trkpt>
      <trkpt lat="45.07728" lon="5.94784">
        <ele>2162.15</ele>
        <time>2019-10-06T13:15:01Z</time>
      </trkpt>
      <trkpt lat="45.07705" lon="5.94774">
        <ele>2165.84</ele>
        <time>2019-10-06T13:15:13Z</time>
      </trkpt>
      <trkpt lat="45.07698" lon="5.94749">
        <ele>2169.27</ele>
        <time>2019-10-06T13:15:17Z</time>
      </trkpt>
      <trkpt lat="45.07674" lon="5.94763">
        <ele>2140.1</ele>
        <time>2019-10-06T13:15:45Z</time>
      </trkpt>
      <trkpt lat="45.07656" lon="5.94751">
        <ele>2149.58</ele>
        <time>2019-10-06T13:16:05Z</time>
      </trkpt>
      <trkpt lat="45.07615" lon="5.94763">
        <ele>2153.52</ele>
        <time>2019-10-06T13:16:30Z</time>
      </trkpt>
      <trkpt lat="45.07596" lon="5.94771">
        <ele>2147.94</ele>
        <time>2019-10-06T13:16:58Z</time>
      </trkpt>
      <trkpt lat="45.07554" lon="5.94768">
        <ele>2139.25</ele>
        <time>2019-10-06T13:17:17Z</time>
      </trkpt>
      <trkpt lat="45.07535" lon="5.94771">
        <ele>2140.68</ele>
        <time>2019-10-06T13:17:41Z</time>
      </trkpt>
      <trkpt lat="45.07515" lon="5.94791">
        <ele>2139.23</ele>
        <time>2019-10-06T13:17:49Z</time>
      </trkpt>
      <trkpt lat="45.07496" lon="5.94792">
        <ele>2145.31</ele>
        <time>2019-10-06T13:18:57Z</time>
      </trkpt>
      <trkpt lat="45.07472" lon="5.94772">
        <ele>2144.03</ele>
        <time>2019-10-06T13:19:13Z</time>
      </trkpt>
      <trkpt lat="45.07441" lon="5.94779">
        <ele>2144.06</ele>
        <time>2019-10-06T13:19:33Z</time>
      </trkpt>
      <trkpt lat="45.07418" lon="5.94783">
        <ele>2149.32</ele>
        <time>2019-10-06T13:19:46Z</time>
      </trkpt>
      <trkpt lat="45.07399" lon="5.94765">
        <ele>2163.86</ele>
        <time>2019-10-06T13:20:05Z</time>
      </trkpt>
      <trkpt lat="45.07383" lon="5.94751">
        <ele>2162.3</ele>
        <time>2019-10-06T13:20:29Z</time>
      </trkpt>
      <trkpt lat="45.07365" lon="5.94723">
        <ele>2146.9</ele>
        <time>2019-10-06T13:20:37Z</time>
      </trkpt>
      <trkpt lat="45.07349" lon="5.94735">
        <ele>2138.37</ele>
        <time>2019-10-06T13:21:06Z</time>
      </trkpt>
      <trkpt lat="45.0733" lon="5.94743">
        <ele>2140.69</ele>
        <time>2019-10-06T13:21:25Z</time>
      </trkpt>
      <trkpt lat="45.07313" lon="5.94724">
        <ele>2138.93</ele>
        <time>2019-10-06T13:21:49Z</time>
      </trkpt>
      <trkpt lat="45.07305" lon="5.94699">
        <ele>2137.44</ele>
        <time>2019-10-06T13:22:29Z</time>
      </trkpt>
      <trkpt lat="45.07293" lon="5.94678">
        <ele>2137.6</ele>
        <time>2019-10-06T13:22:53Z</time>
      </trkpt>
      <trkpt lat="45.07292" lon="5.94649">
        <ele>2137.54</ele>
        <time>2019-10-06T13:23:09Z</time>
      </trkpt>
      <trkpt lat="45.07286" lon="5.94623">
        <ele>2147.47</ele>
        <time>2019-10-06T13:23:37Z</time>
      </trkpt>
      <trkpt lat="45.07269" lon="5.94616">
        <ele>2146.96</ele>
        <time>2019-10-06T13:24:09Z</time>
      </trkpt>
      <trkpt lat="45.0726" lon="5.9459">
        <ele>2132.78</ele>
        <time>2019-10-06T13:24:21Z</time>
      </trkpt>
      <trkpt lat="45.07238" lon="5.94582">
        <ele>2142.87</ele>
        <time>2019-10-06T13:24:49Z</time>
      </trkpt>
      <trkpt lat="45.07228" lon="5.94556">
        <ele>2141.34</ele>
        <time>2019-10-06T13:25:05Z</time>
      </trkpt>
      <trkpt lat="45.07222" lon="5.94531">
        <ele>2140.72</ele>
        <time>2019-10-06T13:25:17Z</time>
      </trkpt>
      <trkpt lat="45.07204" lon="5.94537">
        <ele>2131.46</ele>
        <time>2019-10-06T13:26:58Z</time>
      </trkpt>
      <trkpt lat="45.0719" lon="5.94515">
        <ele>2133.91</ele>
        <time>2019-10-06T13:27:05Z</time>
      </trkpt>
      <trkpt lat="45.07169" lon="5.9452">
        <ele>2134.46</ele>
        <time>2019-10-06T13:27:17Z</time>
      </trkpt>
      <trkpt lat="45.07149" lon="5.94501">
        <ele>2134.3</ele>
        <time>2019-10-06T13:27:37Z</time>
      </trkpt>
      <trkpt lat="45.07136" lon="5.94475">
        <ele>2133.9</ele>
        <time>2019-10-06T13:28:49Z</time>
      </trkpt>
      <trkpt lat="45.07148" lon="5.94452">
        <ele>2128.12</ele>
        <time>2019-10-06T13:29:09Z</time>
      </trkpt>
      <trkpt lat="45.07164" lon="5.94428">
        <ele>2121.86</ele>
        <time>2019-10-06T13:29:21Z</time>
      </trkpt>
      <trkpt lat="45.07155" lon="5.94403">
        <ele>2118.87</ele>
        <time>2019-10-06T13:29:41Z</time>
      </trkpt>
      <trkpt lat="45.07139" lon="5.94374">
        <ele>2123.15</ele>
        <time>2019-10-06T13:30:09Z</time>
      </trkpt>
      <trkpt lat="45.07124" lon="5.94357">
        <ele>2119.57</ele>
        <time>2019-10-06T13:30:49Z</time>
      </trkpt>
      <trkpt lat="45.07109" lon="5.94341">
        <ele>2117.7</ele>
        <time>2019-10-06T13:31:13Z</time>
      </trkpt>
      <trkpt lat="45.07094" lon="5.94357">
        <ele>2116.46</ele>
        <time>2019-10-06T13:31:54Z</time>
      </trkpt>
      <trkpt lat="45.07076" lon="5.9437">
        <ele>2118.51</ele>
        <time>2019-10-06T13:32:06Z</time>
      </trkpt>
      <trkpt lat="45.07056" lon="5.94373">
        <ele>2108.2</ele>
        <time>2019-10-06T13:32:41Z</time>
      </trkpt>
      <trkpt lat="45.0704" lon="5.94351">
        <ele>2104.14</ele>
        <time>2019-10-06T13:33:10Z</time>
      </trkpt>
      <trkpt lat="45.07026" lon="5.94331">
        <ele>2103.42</ele>
        <time>2019-10-06T13:33:37Z</time>
      </trkpt>
      <trkpt lat="45.07007" lon="5.94326">
        <ele>2102.83</ele>
        <time>2019-10-06T13:34:13Z</time>
      </trkpt>
      <trkpt lat="45.06989" lon="5.94336">
        <ele>2100.75</ele>
        <time>2019-10-06T13:34:41Z</time>
      </trkpt>
      <trkpt lat="45.06972" lon="5.94327">
        <ele>2100.62</ele>
        <time>2019-10-06T13:34:50Z</time>
      </trkpt>
      <trkpt lat="45.06954" lon="5.94314">
        <ele>2101.49</ele>
        <time>2019-10-06T13:35:06Z</time>
      </trkpt>
      <trkpt lat="45.06935" lon="5.94318">
        <ele>2100.85</ele>
        <time>2019-10-06T13:35:41Z</time>
      </trkpt>
      <trkpt lat="45.06915" lon="5.9432">
        <ele>2099.12</ele>
        <time>2019-10-06T13:36:38Z</time>
      </trkpt>
      <trkpt lat="45.06896" lon="5.94316">
        <ele>2097.63</ele>
        <time>2019-10-06T13:37:13Z</time>
      </trkpt>
      <trkpt lat="45.06886" lon="5.94295">
        <ele>2096.1</ele>
        <time>2019-10-06T13:37:18Z</time>
      </trkpt>
      <trkpt lat="45.06866" lon="5.94297">
        <ele>2105.63</ele>
        <time>2019-10-06T13:37:37Z</time>
      </trkpt>
      <trkpt lat="45.06849" lon="5.94281">
        <ele>2101.08</ele>
        <time>2019-10-06T13:38:05Z</time>
      </trkpt>
      <trkpt lat="45.06827" lon="5.9428">
        <ele>2101.72</ele>
        <time>2019-10-06T13:38:21Z</time>
      </trkpt>
      <trkpt lat="45.06816" lon="5.94252">
        <ele>2105.49</ele>
        <time>2019-10-06T13:38:37Z</time>
      </trkpt>
      <trkpt lat="45.06796" lon="5.94242">
        <ele>2105.17</ele>
        <time>2019-10-06T13:38:42Z</time>
      </trkpt>
      <trkpt lat="45.06775" lon="5.94235">
        <ele>2101.89</ele>
        <time>2019-10-06T13:38:57Z</time>
      </trkpt>
      <trkpt lat="45.06765" lon="5.94214">
        <ele>2097.88</ele>
        <time>2019-10-06T13:39:17Z</time>
      </trkpt>
      <trkpt lat="45.06751" lon="5.94196">
        <ele>2098.12</ele>
        <time>2019-10-06T13:39:46Z</time>
      </trkpt>
      <trkpt lat="45.06739" lon="5.94215">
        <ele>2105.08</ele>
        <time>2019-10-06T13:40:13Z</time>
      </trkpt>
      <trkpt lat="45.06735" lon="5.94184">
        <ele>2102.33</ele>
        <time>2019-10-06T13:40:37Z</time>
      </trkpt>
      <trkpt lat="45.0672" lon="5.94159">
        <ele>2102.21</ele>
        <time>2019-10-06T13:40:53Z</time>
      </trkpt>
      <trkpt lat="45.06731" lon="5.94133">
        <ele>2092.98</ele>
        <time>2019-10-06T13:41:22Z</time>
      </trkpt>
      <trkpt lat="45.06713" lon="5.94114">
        <ele>2090.36</ele>
        <time>2019-10-06T13:41:49Z</time>
      </trkpt>
      <trkpt lat="45.06701" lon="5.94086">
        <ele>2090.57</ele>
        <time>2019-10-06T13:42:05Z</time>
      </trkpt>
      <trkpt lat="45.06683" lon="5.94081">
        <ele>2091.84</ele>
        <time>2019-10-06T13:42:21Z</time>
      </trkpt>
      <trkpt lat="45.06664" lon="5.94095">
        <ele>2094.29</ele>
        <time>2019-10-06T13:42:54Z</time>
      </trkpt>
      <trkpt lat="45.06644" lon="5.94086">
        <ele>2095.38</ele>
        <time>2019-10-06T13:43:26Z</time>
      </trkpt>
      <trkpt lat="45.0663" lon="5.94065">
        <ele>2099.42</ele>
        <time>2019-10-06T13:43:34Z</time>
      </trkpt>
      <trkpt lat="45.06611" lon="5.94041">
        <ele>2099.24</ele>
        <time>2019-10-06T13:44:06Z</time>
      </trkpt>
      <trkpt lat="45.06593" lon="5.94015">
        <ele>2080.13</ele>
        <time>2019-10-06T13:44:21Z</time>
      </trkpt>
      <trkpt lat="45.06578" lon="5.93996">
        <ele>2074.83</ele>
        <time>2019-10-06T13:44:46Z</time>
      </trkpt>
      <trkpt lat="45.06557" lon="5.93989">
        <ele>2082.93</ele>
        <time>2019-10-06T13:45:10Z</time>
      </trkpt>
      <trkpt lat="45.06558" lon="5.93962">
        <ele>2086.04</ele>
        <time>2019-10-06T13:45:29Z</time>
      </trkpt>
      <trkpt lat="45.06548" lon="5.9394">
        <ele>2069.76</ele>
        <time>2019-10-06T13:45:42Z</time>
      </trkpt>
      <trkpt lat="45.06528" lon="5.93938">
        <ele>2072.99</ele>
        <time>2019-10-06T13:46:14Z</time>
      </trkpt>
      <trkpt lat="45.06515" lon="5.93905">
        <ele>2064</ele>
        <time>2019-10-06T13:46:30Z</time>
      </trkpt>
      <trkpt lat="45.06497" lon="5.93921">
        <ele>2060.77</ele>
        <time>2019-10-06T13:46:42Z</time>
      </trkpt>
      <trkpt lat="45.06474" lon="5.93919">
        <ele>2063.24</ele>
        <time>2019-10-06T13:48:54Z</time>
      </trkpt>
      <trkpt lat="45.06473" lon="5.9389">
        <ele>2070.15</ele>
        <time>2019-10-06T13:49:10Z</time>
      </trkpt>
      <trkpt lat="45.0645" lon="5.93884">
        <ele>2069.09</ele>
        <time>2019-10-06T13:49:42Z</time>
      </trkpt>
      <trkpt lat="45.06425" lon="5.93879">
        <ele>2072.81</ele>
        <time>2019-10-06T13:50:14Z</time>
      </trkpt>
      <trkpt lat="45.06419" lon="5.93854">
        <ele>2073.18</ele>
        <time>2019-10-06T13:50:30Z</time>
      </trkpt>
      <trkpt lat="45.06402" lon="5.93836">
        <ele>2046.94</ele>
        <time>2019-10-06T13:50:38Z</time>
      </trkpt>
      <trkpt lat="45.06385" lon="5.93814">
        <ele>2024.11</ele>
        <time>2019-10-06T13:50:54Z</time>
      </trkpt>
      <trkpt lat="45.06378" lon="5.9379">
        <ele>2017.03</ele>
        <time>2019-10-06T13:51:22Z</time>
      </trkpt>
      <trkpt lat="45.06362" lon="5.93774">
        <ele>2016.65</ele>
        <time>2019-10-06T13:51:42Z</time>
      </trkpt>
      <trkpt lat="45.06342" lon="5.93774">
        <ele>2022.68</ele>
        <time>2019-10-06T13:51:54Z</time>
      </trkpt>
      <trkpt lat="45.06325" lon="5.93762">
        <ele>2028.65</ele>
        <time>2019-10-06T13:52:22Z</time>
      </trkpt>
      <trkpt lat="45.06312" lon="5.93736">
        <ele>2029.48</ele>
        <time>2019-10-06T13:52:46Z</time>
      </trkpt>
      <trkpt lat="45.06287" lon="5.93734">
        <ele>2029.52</ele>
        <time>2019-10-06T13:52:58Z</time>
      </trkpt>
      <trkpt lat="45.06277" lon="5.93704">
        <ele>2026.48</ele>
        <time>2019-10-06T13:53:18Z</time>
      </trkpt>
      <trkpt lat="45.06259" lon="5.93698">
        <ele>2022.96</ele>
        <time>2019-10-06T13:54:06Z</time>
      </trkpt>
      <trkpt lat="45.0626" lon="5.93694">
        <ele>2019.74</ele>
        <time>2019-10-06T13:57:06Z</time>
      </trkpt>
      <trkpt lat="45.06247" lon="5.93671">
        <ele>2021.74</ele>
        <time>2019-10-06T13:57:26Z</time>
      </trkpt>
      <trkpt lat="45.06234" lon="5.93654">
        <ele>2026.12</ele>
        <time>2019-10-06T13:57:50Z</time>
      </trkpt>
      <trkpt lat="45.06227" lon="5.93629">
        <ele>2024.04</ele>
        <time>2019-10-06T13:58:14Z</time>
      </trkpt>
      <trkpt lat="45.06225" lon="5.93591">
        <ele>2025.04</ele>
        <time>2019-10-06T13:58:34Z</time>
      </trkpt>
      <trkpt lat="45.06228" lon="5.93562">
        <ele>2022.63</ele>
        <time>2019-10-06T13:58:46Z</time>
      </trkpt>
      <trkpt lat="45.06212" lon="5.93537">
        <ele>2022.6</ele>
        <time>2019-10-06T13:59:06Z</time>
      </trkpt>
      <trkpt lat="45.06209" lon="5.93507">
        <ele>2031.11</ele>
        <time>2019-10-06T13:59:30Z</time>
      </trkpt>
      <trkpt lat="45.06224" lon="5.93486">
        <ele>2031.36</ele>
        <time>2019-10-06T13:59:42Z</time>
      </trkpt>
      <trkpt lat="45.06234" lon="5.93456">
        <ele>2027.11</ele>
        <time>2019-10-06T13:59:50Z</time>
      </trkpt>
      <trkpt lat="45.06232" lon="5.93427">
        <ele>2023.26</ele>
        <time>2019-10-06T14:00:22Z</time>
      </trkpt>
      <trkpt lat="45.06214" lon="5.93404">
        <ele>2020.3</ele>
        <time>2019-10-06T14:00:38Z</time>
      </trkpt>
      <trkpt lat="45.06221" lon="5.93377">
        <ele>2022.88</ele>
        <time>2019-10-06T14:00:58Z</time>
      </trkpt>
      <trkpt lat="45.06227" lon="5.93347">
        <ele>2033.51</ele>
        <time>2019-10-06T14:01:14Z</time>
      </trkpt>
      <trkpt lat="45.06221" lon="5.93318">
        <ele>2039.08</ele>
        <time>2019-10-06T14:01:42Z</time>
      </trkpt>
      <trkpt lat="45.06219" lon="5.93289">
        <ele>2038.91</ele>
        <time>2019-10-06T14:02:50Z</time>
      </trkpt>
      <trkpt lat="45.06197" lon="5.93296">
        <ele>2032.06</ele>
        <time>2019-10-06T14:03:06Z</time>
      </trkpt>
      <trkpt lat="45.06194" lon="5.93249">
        <ele>2025.95</ele>
        <time>2019-10-06T14:03:26Z</time>
      </trkpt>
      <trkpt lat="45.06177" lon="5.93266">
        <ele>2032.04</ele>
        <time>2019-10-06T14:04:18Z</time>
      </trkpt>
      <trkpt lat="45.06163" lon="5.93248">
        <ele>2035.28</ele>
        <time>2019-10-06T14:04:46Z</time>
      </trkpt>
      <trkpt lat="45.06175" lon="5.93222">
        <ele>2041.8</ele>
        <time>2019-10-06T14:05:14Z</time>
      </trkpt>
      <trkpt lat="45.06182" lon="5.93208">
        <ele>2035.06</ele>
        <time>2019-10-06T14:05:38Z</time>
      </trkpt>
      <trkpt lat="45.06186" lon="5.93182">
        <ele>2020.69</ele>
        <time>2019-10-06T14:05:58Z</time>
      </trkpt>
      <trkpt lat="45.06165" lon="5.93158">
        <ele>2021.21</ele>
        <time>2019-10-06T14:06:42Z</time>
      </trkpt>
      <trkpt lat="45.06169" lon="5.9314">
        <ele>2042.1</ele>
        <time>2019-10-06T14:07:06Z</time>
      </trkpt>
      <trkpt lat="45.06173" lon="5.93127">
        <ele>2029.47</ele>
        <time>2019-10-06T14:07:18Z</time>
      </trkpt>
      <trkpt lat="45.06176" lon="5.93098">
        <ele>2029.6</ele>
        <time>2019-10-06T14:07:26Z</time>
      </trkpt>
      <trkpt lat="45.06185" lon="5.93083">
        <ele>2035.92</ele>
        <time>2019-10-06T14:08:02Z</time>
      </trkpt>
      <trkpt lat="45.06184" lon="5.93055">
        <ele>2037.01</ele>
        <time>2019-10-06T14:13:14Z</time>
      </trkpt>
      <trkpt lat="45.06196" lon="5.93034">
        <ele>2037.82</ele>
        <time>2019-10-06T14:13:18Z</time>
      </trkpt>
      <trkpt lat="45.0622" lon="5.93022">
        <ele>2034.7</ele>
        <time>2019-10-06T14:13:27Z</time>
      </trkpt>
      <trkpt lat="45.06202" lon="5.93002">
        <ele>2032.55</ele>
        <time>2019-10-06T14:15:06Z</time>
      </trkpt>
      <trkpt lat="45.06192" lon="5.92978">
        <ele>2027.35</ele>
        <time>2019-10-06T14:15:14Z</time>
      </trkpt>
      <trkpt lat="45.0617" lon="5.92978">
        <ele>2032.44</ele>
        <time>2019-10-06T14:15:46Z</time>
      </trkpt>
      <trkpt lat="45.06153" lon="5.92969">
        <ele>2041.58</ele>
        <time>2019-10-06T14:17:10Z</time>
      </trkpt>
      <trkpt lat="45.06131" lon="5.92957">
        <ele>2043.2</ele>
        <time>2019-10-06T14:17:22Z</time>
      </trkpt>
      <trkpt lat="45.06111" lon="5.92961">
        <ele>2042.05</ele>
        <time>2019-10-06T14:17:26Z</time>
      </trkpt>
      <trkpt lat="45.06104" lon="5.92935">
        <ele>2041.26</ele>
        <time>2019-10-06T14:19:15Z</time>
      </trkpt>
      <trkpt lat="45.06082" lon="5.92942">
        <ele>2027.82</ele>
        <time>2019-10-06T14:19:26Z</time>
      </trkpt>
      <trkpt lat="45.06046" lon="5.92949">
        <ele>2025.15</ele>
        <time>2019-10-06T14:19:38Z</time>
      </trkpt>
      <trkpt lat="45.06023" lon="5.92949">
        <ele>2024.95</ele>
        <time>2019-10-06T14:21:02Z</time>
      </trkpt>
      <trkpt lat="45.06014" lon="5.92942">
        <ele>2038.18</ele>
        <time>2019-10-06T14:21:42Z</time>
      </trkpt>
      <trkpt lat="45.05986" lon="5.92937">
        <ele>2043.3</ele>
        <time>2019-10-06T14:24:18Z</time>
      </trkpt>
      <trkpt lat="45.05969" lon="5.92921">
        <ele>2043.83</ele>
        <time>2019-10-06T14:26:30Z</time>
      </trkpt>
      <trkpt lat="45.0595" lon="5.92927">
        <ele>2040.71</ele>
        <time>2019-10-06T14:26:39Z</time>
      </trkpt>
      <trkpt lat="45.05932" lon="5.92937">
        <ele>2036.8</ele>
        <time>2019-10-06T14:28:26Z</time>
      </trkpt>
      <trkpt lat="45.05914" lon="5.92927">
        <ele>2040.75</ele>
        <time>2019-10-06T14:28:34Z</time>
      </trkpt>
      <trkpt lat="45.05902" lon="5.92906">
        <ele>2043.66</ele>
        <time>2019-10-06T14:28:58Z</time>
      </trkpt>
      <trkpt lat="45.05879" lon="5.9289">
        <ele>2042.22</ele>
        <time>2019-10-06T14:31:58Z</time>
      </trkpt>
      <trkpt lat="45.05859" lon="5.92889">
        <ele>2047.3</ele>
        <time>2019-10-06T14:32:10Z</time>
      </trkpt>
      <trkpt lat="45.05841" lon="5.92882">
        <ele>2042.3</ele>
        <time>2019-10-06T14:32:27Z</time>
      </trkpt>
      <trkpt lat="45.05815" lon="5.92872">
        <ele>2037.15</ele>
        <time>2019-10-06T14:32:51Z</time>
      </trkpt>
      <trkpt lat="45.05794" lon="5.92878">
        <ele>2033.48</ele>
        <time>2019-10-06T14:33:22Z</time>
      </trkpt>
      <trkpt lat="45.05776" lon="5.92883">
        <ele>2043.03</ele>
        <time>2019-10-06T14:33:46Z</time>
      </trkpt>
      <trkpt lat="45.05758" lon="5.92889">
        <ele>2042.7</ele>
        <time>2019-10-06T14:34:07Z</time>
      </trkpt>
      <trkpt lat="45.0574" lon="5.92901">
        <ele>2042.73</ele>
        <time>2019-10-06T14:34:18Z</time>
      </trkpt>
      <trkpt lat="45.05722" lon="5.92908">
        <ele>2041.18</ele>
        <time>2019-10-06T14:34:46Z</time>
      </trkpt>
      <trkpt lat="45.05704" lon="5.92891">
        <ele>2037.2</ele>
        <time>2019-10-06T14:34:54Z</time>
      </trkpt>
      <trkpt lat="45.05682" lon="5.92881">
        <ele>2042.97</ele>
        <time>2019-10-06T14:35:11Z</time>
      </trkpt>
      <trkpt lat="45.05661" lon="5.92877">
        <ele>2042.52</ele>
        <time>2019-10-06T14:35:38Z</time>
      </trkpt>
      <trkpt lat="45.05649" lon="5.92857">
        <ele>2044.4</ele>
        <time>2019-10-06T14:35:54Z</time>
      </trkpt>
      <trkpt lat="45.05628" lon="5.92851">
        <ele>2039.14</ele>
        <time>2019-10-06T14:36:07Z</time>
      </trkpt>
      <trkpt lat="45.0561" lon="5.92858">
        <ele>2040.42</ele>
        <time>2019-10-06T14:36:27Z</time>
      </trkpt>
      <trkpt lat="45.05586" lon="5.92854">
        <ele>2044.98</ele>
        <time>2019-10-06T14:36:47Z</time>
      </trkpt>
      <trkpt lat="45.05564" lon="5.92833">
        <ele>2051.01</ele>
        <time>2019-10-06T14:37:07Z</time>
      </trkpt>
      <trkpt lat="45.05551" lon="5.9281">
        <ele>2035.99</ele>
        <time>2019-10-06T14:38:38Z</time>
      </trkpt>
      <trkpt lat="45.05547" lon="5.92781">
        <ele>2035.59</ele>
        <time>2019-10-06T14:38:58Z</time>
      </trkpt>
      <trkpt lat="45.05541" lon="5.92754">
        <ele>2043.6</ele>
        <time>2019-10-06T14:39:14Z</time>
      </trkpt>
      <trkpt lat="45.05523" lon="5.92763">
        <ele>2044.8</ele>
        <time>2019-10-06T14:40:31Z</time>
      </trkpt>
      <trkpt lat="45.05502" lon="5.9276">
        <ele>2046.02</ele>
        <time>2019-10-06T14:40:58Z</time>
      </trkpt>
      <trkpt lat="45.05478" lon="5.92754">
        <ele>2033.73</ele>
        <time>2019-10-06T14:41:16Z</time>
      </trkpt>
      <trkpt lat="45.05464" lon="5.92735">
        <ele>2032.65</ele>
        <time>2019-10-06T14:41:39Z</time>
      </trkpt>
      <trkpt lat="45.05443" lon="5.92738">
        <ele>2030.1</ele>
        <time>2019-10-06T14:41:58Z</time>
      </trkpt>
      <trkpt lat="45.0542" lon="5.92727">
        <ele>2036.33</ele>
        <time>2019-10-06T14:44:34Z</time>
      </trkpt>
      <trkpt lat="45.05401" lon="5.92707">
        <ele>2039.68</ele>
        <time>2019-10-06T14:44:46Z</time>
      </trkpt>
      <trkpt lat="45.05404" lon="5.92677">
        <ele>2037.36</ele>
        <time>2019-10-06T14:45:11Z</time>
      </trkpt>
      <trkpt lat="45.05376" lon="5.9266">
        <ele>2038.85</ele>
        <time>2019-10-06T14:47:55Z</time>
      </trkpt>
      <trkpt lat="45.05361" lon="5.92645">
        <ele>2035.75</ele>
        <time>2019-10-06T14:48:07Z</time>
      </trkpt>
      <trkpt lat="45.05366" lon="5.92618">
        <ele>2041.08</ele>
        <time>2019-10-06T14:48:31Z</time>
      </trkpt>
      <trkpt lat="45.05382" lon="5.92591">
        <ele>2048.18</ele>
        <time>2019-10-06T14:49:03Z</time>
      </trkpt>
      <trkpt lat="45.0539" lon="5.92561">
        <ele>2041.12</ele>
        <time>2019-10-06T14:49:42Z</time>
      </trkpt>
      <trkpt lat="45.05393" lon="5.92536">
        <ele>2046.45</ele>
        <time>2019-10-06T14:50:42Z</time>
      </trkpt>
      <trkpt lat="45.05402" lon="5.92514">
        <ele>2042.67</ele>
        <time>2019-10-06T14:50:54Z</time>
      </trkpt>
      <trkpt lat="45.05411" lon="5.92491">
        <ele>2039.05</ele>
        <time>2019-10-06T14:51:06Z</time>
      </trkpt>
      <trkpt lat="45.05425" lon="5.92464">
        <ele>2037.03</ele>
        <time>2019-10-06T14:51:26Z</time>
      </trkpt>
      <trkpt lat="45.05434" lon="5.92429">
        <ele>2038.09</ele>
        <time>2019-10-06T14:52:15Z</time>
      </trkpt>
      <trkpt lat="45.05448" lon="5.92411">
        <ele>2034.2</ele>
        <time>2019-10-06T14:52:59Z</time>
      </trkpt>
      <trkpt lat="45.05454" lon="5.92385">
        <ele>2034.67</ele>
        <time>2019-10-06T14:53:27Z</time>
      </trkpt>
      <trkpt lat="45.05448" lon="5.92358">
        <ele>2035.93</ele>
        <time>2019-10-06T14:54:14Z</time>
      </trkpt>
      <trkpt lat="45.05451" lon="5.92331">
        <ele>2029</ele>
        <time>2019-10-06T14:54:35Z</time>
      </trkpt>
      <trkpt lat="45.05463" lon="5.92307">
        <ele>2016.55</ele>
        <time>2019-10-06T14:55:02Z</time>
      </trkpt>
      <trkpt lat="45.05447" lon="5.92284">
        <ele>2009.1</ele>
        <time>2019-10-06T14:55:11Z</time>
      </trkpt>
      <trkpt lat="45.0545" lon="5.92258">
        <ele>2006.41</ele>
        <time>2019-10-06T14:55:31Z</time>
      </trkpt>
      <trkpt lat="45.05421" lon="5.92241">
        <ele>2002.32</ele>
        <time>2019-10-06T14:55:42Z</time>
      </trkpt>
      <trkpt lat="45.05418" lon="5.92203">
        <ele>1990.74</ele>
        <time>2019-10-06T14:56:02Z</time>
      </trkpt>
      <trkpt lat="45.05395" lon="5.92172">
        <ele>1979.37</ele>
        <time>2019-10-06T14:56:34Z</time>
      </trkpt>
      <trkpt lat="45.05381" lon="5.92138">
        <ele>1978.16</ele>
        <time>2019-10-06T14:56:47Z</time>
      </trkpt>
      <trkpt lat="45.05354" lon="5.92142">
        <ele>1969.84</ele>
        <time>2019-10-06T14:57:07Z</time>
      </trkpt>
      <trkpt lat="45.05336" lon="5.92133">
        <ele>1972.26</ele>
        <time>2019-10-06T14:57:26Z</time>
      </trkpt>
      <trkpt lat="45.05312" lon="5.92119">
        <ele>1954.68</ele>
        <time>2019-10-06T14:57:46Z</time>
      </trkpt>
      <trkpt lat="45.0532" lon="5.92086">
        <ele>1943.98</ele>
        <time>2019-10-06T14:59:14Z</time>
      </trkpt>
      <trkpt lat="45.05304" lon="5.92067">
        <ele>1938.36</ele>
        <time>2019-10-06T14:59:58Z</time>
      </trkpt>
      <trkpt lat="45.05283" lon="5.92057">
        <ele>1930.24</ele>
        <time>2019-10-06T15:00:11Z</time>
      </trkpt>
      <trkpt lat="45.05263" lon="5.92055">
        <ele>1925.87</ele>
        <time>2019-10-06T15:00:31Z</time>
      </trkpt>
      <trkpt lat="45.05254" lon="5.92033">
        <ele>1923.63</ele>
        <time>2019-10-06T15:00:51Z</time>
      </trkpt>
      <trkpt lat="45.05256" lon="5.92008">
        <ele>1921.27</ele>
        <time>2019-10-06T15:01:30Z</time>
      </trkpt>
      <trkpt lat="45.05244" lon="5.91983">
        <ele>1920.89</ele>
        <time>2019-10-06T15:02:07Z</time>
      </trkpt>
      <trkpt lat="45.05238" lon="5.91955">
        <ele>1924.7</ele>
        <time>2019-10-06T15:02:14Z</time>
      </trkpt>
      <trkpt lat="45.05218" lon="5.91937">
        <ele>1900.87</ele>
        <time>2019-10-06T15:02:27Z</time>
      </trkpt>
      <trkpt lat="45.05203" lon="5.91854">
        <ele>1885.68</ele>
        <time>2019-10-06T15:03:07Z</time>
      </trkpt>
      <trkpt lat="45.05211" lon="5.91831">
        <ele>1873.71</ele>
        <time>2019-10-06T15:03:30Z</time>
      </trkpt>
      <trkpt lat="45.05216" lon="5.91795">
        <ele>1845.24</ele>
        <time>2019-10-06T15:04:15Z</time>
      </trkpt>
      <trkpt lat="45.05201" lon="5.91767">
        <ele>1843.18</ele>
        <time>2019-10-06T15:04:48Z</time>
      </trkpt>
      <trkpt lat="45.05178" lon="5.91746">
        <ele>1845.17</ele>
        <time>2019-10-06T15:05:19Z</time>
      </trkpt>
      <trkpt lat="45.05176" lon="5.91717">
        <ele>1843.08</ele>
        <time>2019-10-06T15:06:10Z</time>
      </trkpt>
      <trkpt lat="45.05168" lon="5.91688">
        <ele>1833.58</ele>
        <time>2019-10-06T15:07:07Z</time>
      </trkpt>
      <trkpt lat="45.05193" lon="5.91648">
        <ele>1830.3</ele>
        <time>2019-10-06T15:07:35Z</time>
      </trkpt>
      <trkpt lat="45.05192" lon="5.91623">
        <ele>1820.93</ele>
        <time>2019-10-06T15:08:35Z</time>
      </trkpt>
      <trkpt lat="45.05175" lon="5.91613">
        <ele>1816.76</ele>
        <time>2019-10-06T15:08:51Z</time>
      </trkpt>
      <trkpt lat="45.05168" lon="5.91581">
        <ele>1807.44</ele>
      </trkpt>
      <trkpt lat="45.05176" lon="5.91555">
        <ele>1791.71</ele>
      </trkpt>
      <trkpt lat="45.05169" lon="5.91539">
        <ele>1795.71</ele>
      </trkpt>
      <trkpt lat="45.05175" lon="5.91512">
        <ele>1786.18</ele>
      </trkpt>
      <trkpt lat="45.05188" lon="5.91491">
        <ele>1785.46</ele>
      </trkpt>
      <trkpt lat="45.05175" lon="5.91459">
        <ele>1784.49</ele>
      </trkpt>
      <trkpt lat="45.05146" lon="5.91426">
        <ele>1793.9</ele>
      </trkpt>
      <trkpt lat="45.05132" lon="5.91404">
        <ele>1784.3</ele>
      </trkpt>
      <trkpt lat="45.0512" lon="5.91386">
        <ele>1799.12</ele>
      </trkpt>
      <trkpt lat="45.05099" lon="5.91347">
        <ele>1778.69</ele>
      </trkpt>
      <trkpt lat="45.05074" lon="5.91341">
        <ele>1789.6</ele>
      </trkpt>
      <trkpt lat="45.05065" lon="5.91326">
        <ele>1780.7</ele>
      </trkpt>
      <trkpt lat="45.05071" lon="5.91289">
        <ele>1776</ele>
      </trkpt>
      <trkpt lat="45.05066" lon="5.91267">
        <ele>1764.03</ele>
      </trkpt>
      <trkpt lat="45.05064" lon="5.91237">
        <ele>1758.74</ele>
      </trkpt>
      <trkpt lat="45.05056" lon="5.91209">
        <ele>1750.74</ele>
      </trkpt>
      <trkpt lat="45.05059" lon="5.91183">
        <ele>1746.82</ele>
      </trkpt>
      <trkpt lat="45.05058" lon="5.9113">
        <ele>1739.68</ele>
      </trkpt>
      <trkpt lat="45.05063" lon="5.91102">
        <ele>1735.23</ele>
      </trkpt>
      <trkpt lat="45.05078" lon="5.91084">
        <ele>1716.02</ele>
      </trkpt>
      <trkpt lat="45.05069" lon="5.91042">
        <ele>1712.04</ele>
      </trkpt>
      <trkpt lat="45.05055" lon="5.91016">
        <ele>1725.95</ele>
      </trkpt>
      <trkpt lat="45.05064" lon="5.90993">
        <ele>1711.09</ele>
      </trkpt>
      <trkpt lat="45.05075" lon="5.90962">
        <ele>1704.41</ele>
      </trkpt>
      <trkpt lat="45.05081" lon="5.90936">
        <ele>1705.7</ele>
      </trkpt>
      <trkpt lat="45.05091" lon="5.90914">
        <ele>1702.27</ele>
      </trkpt>
      <trkpt lat="45.05098" lon="5.90888">
        <ele>1690.94</ele>
      </trkpt>
      <trkpt lat="45.05105" lon="5.90833">
        <ele>1690.56</ele>
      </trkpt>
      <trkpt lat="45.05113" lon="5.90804">
        <ele>1686.95</ele>
      </trkpt>
      <trkpt lat="45.05116" lon="5.90778">
        <ele>1680.84</ele>
      </trkpt>
      <trkpt lat="45.05112" lon="5.90747">
        <ele>1690.18</ele>
      </trkpt>
      <trkpt lat="45.05126" lon="5.90724">
        <ele>1689.4</ele>
      </trkpt>
      <trkpt lat="45.05124" lon="5.90696">
        <ele>1687.41</ele>
      </trkpt>
      <trkpt lat="45.05123" lon="5.90669">
        <ele>1684.81</ele>
      </trkpt>
      <trkpt lat="45.05116" lon="5.90646">
        <ele>1683.76</ele>
      </trkpt>
      <trkpt lat="45.05126" lon="5.90616">
        <ele>1678.8</ele>
      </trkpt>
      <trkpt lat="45.05135" lon="5.90595">
        <ele>1672.01</ele>
      </trkpt>
      <trkpt lat="45.05123" lon="5.90572">
        <ele>1673</ele>
      </trkpt>
      <trkpt lat="45.05132" lon="5.90544">
        <ele>1676.51</ele>
      </trkpt>
      <trkpt lat="45.05135" lon="5.90514">
        <ele>1678.96</ele>
      </trkpt>
      <trkpt lat="45.05138" lon="5.90481">
        <ele>1676.63</ele>
      </trkpt>
      <trkpt lat="45.05152" lon="5.90462">
        <ele>1655.42</ele>
      </trkpt>
      <trkpt lat="45.05162" lon="5.90437">
        <ele>1647.97</ele>
      </trkpt>
      <trkpt lat="45.05167" lon="5.90411">
        <ele>1648.05</ele>
      </trkpt>
      <trkpt lat="45.05163" lon="5.90378">
        <ele>1648.03</ele>
      </trkpt>
      <trkpt lat="45.05171" lon="5.90346">
        <ele>1636.96</ele>
      </trkpt>
      <trkpt lat="45.05165" lon="5.90318">
        <ele>1639.69</ele>
      </trkpt>
      <trkpt lat="45.05162" lon="5.90293">
        <ele>1642.27</ele>
      </trkpt>
      <trkpt lat="45.05144" lon="5.90261">
        <ele>1636.37</ele>
      </trkpt>
      <trkpt lat="45.0515" lon="5.90227">
        <ele>1630.2</ele>
      </trkpt>
      <trkpt lat="45.05157" lon="5.90198">
        <ele>1663.7</ele>
      </trkpt>
      <trkpt lat="45.05139" lon="5.90186">
        <ele>1664.6</ele>
      </trkpt>
      <trkpt lat="45.0513" lon="5.9018">
        <ele>1665</ele>
      </trkpt>
      <trkpt lat="45.05126" lon="5.90171">
        <ele>1665.7</ele>
      </trkpt>
      <trkpt lat="45.05125" lon="5.90139">
        <ele>1664.8</ele>
      </trkpt>
      <trkpt lat="45.05134" lon="5.90108">
        <ele>1663.6</ele>
      </trkpt>
      <trkpt lat="45.05142" lon="5.90085">
        <ele>1632.92</ele>
      </trkpt>
      <trkpt lat="45.05153" lon="5.90047">
        <ele>1660.1</ele>
      </trkpt>
      <trkpt lat="45.05165" lon="5.90017">
        <ele>1636.77</ele>
      </trkpt>
      <trkpt lat="45.05183" lon="5.90011">
        <ele>1656.1</ele>
      </trkpt>
      <trkpt lat="45.05194" lon="5.90051">
        <ele>1656.2</ele>
      </trkpt>
      <trkpt lat="45.05197" lon="5.90067">
        <ele>1656</ele>
      </trkpt>
      <trkpt lat="45.05209" lon="5.90067">
        <ele>1635.45</ele>
      </trkpt>
      <trkpt lat="45.05227" lon="5.90061">
        <ele>1637.59</ele>
      </trkpt>
      <trkpt lat="45.05248" lon="5.90032">
        <ele>1655.9</ele>
      </trkpt>
      <trkpt lat="45.05258" lon="5.90011">
        <ele>1654.2</ele>
      </trkpt>
      <trkpt lat="45.05274" lon="5.89992">
        <ele>1655.8</ele>
      </trkpt>
      <trkpt lat="45.05283" lon="5.8998">
        <ele>1655.5</ele>
      </trkpt>
      <trkpt lat="45.05294" lon="5.89955">
        <ele>1655.8</ele>
      </trkpt>
      <trkpt lat="45.05299" lon="5.89937">
        <ele>1656.1</ele>
      </trkpt>
      <trkpt lat="45.05308" lon="5.89927">
        <ele>1655.9</ele>
      </trkpt>
      <trkpt lat="45.05314" lon="5.89907">
        <ele>1658.2</ele>
      </trkpt>
      <trkpt lat="45.05307" lon="5.89863">
        <ele>1659.8</ele>
      </trkpt>
      <trkpt lat="45.053" lon="5.89842">
        <ele>1660.3</ele>
      </trkpt>
      <trkpt lat="45.05291" lon="5.89807">
        <ele>1664.7</ele>
      </trkpt>
    </trkseg>
  </trk>
</gpx>